Time;durP1;ratioP1;P1;durP2;ratioP2;P2;SDS_P1;SDS_P2;PMS_P1;PMS_P2;Temp;Humidity;BMP_temperature;BMP_pressure;BME280_temperature;BME280_humidity;BME280_pressure;Samples;Min_cycle;Max_cycle;Signal;HPM_P1;HPM_P2
2021/05/31 00:00:16;;;;;;;2.93;2.27;;;12.50;91.60;;;;;;5025865;28;20659;-85
2021/05/31 00:02:44;;;;;;;9.83;2.90;;;12.40;91.50;;;;;;5021857;28;20621;-86
2021/05/31 00:05:11;;;;;;;3.13;2.67;;;12.40;91.00;;;;;;5025082;28;20647;-86
2021/05/31 00:07:38;;;;;;;3.17;2.30;;;12.50;91.90;;;;;;5034928;28;20649;-86
2021/05/31 00:10:08;;;;;;;3.00;2.50;;;12.30;92.10;;;;;;5032127;28;20647;-87
2021/05/31 00:12:34;;;;;;;1.80;1.70;;;12.30;92.10;;;;;;5038070;28;20680;-88
2021/05/31 00:15:01;;;;;;;2.40;2.20;;;12.30;91.70;;;;;;5041253;28;21290;-87
2021/05/31 00:17:27;;;;;;;6.10;3.30;;;12.20;91.80;;;;;;5037813;28;20661;-86
2021/05/31 00:19:54;;;;;;;2.90;2.60;;;12.10;92.10;;;;;;5038932;28;20650;-87
2021/05/31 00:22:22;;;;;;;2.63;2.43;;;12.00;92.80;;;;;;5040124;28;20642;-87
2021/05/31 00:24:48;;;;;;;2.50;2.30;;;12.10;93.00;;;;;;5038571;28;20663;-87
2021/05/31 00:27:16;;;;;;;2.43;2.23;;;11.90;93.40;;;;;;5036521;28;20654;-88
2021/05/31 00:29:43;;;;;;;2.20;2.00;;;12.00;92.80;;;;;;5033406;28;20662;-87
2021/05/31 00:32:09;;;;;;;3.03;2.50;;;11.90;93.30;;;;;;5025342;28;20667;-87
2021/05/31 00:34:36;;;;;;;7.40;2.87;;;11.80;93.70;;;;;;5026070;28;20650;-87
2021/05/31 00:37:03;;;;;;;2.70;2.20;;;11.60;94.80;;;;;;5026908;28;21065;-88
2021/05/31 00:39:29;;;;;;;3.23;2.17;;;11.50;95.40;;;;;;5026667;28;20663;-87
2021/05/31 00:41:56;;;;;;;2.70;2.27;;;11.40;95.90;;;;;;5024930;28;20770;-88
2021/05/31 00:44:24;;;;;;;3.57;2.17;;;11.40;96.80;;;;;;5024113;28;20627;-87
2021/05/31 00:46:52;;;;;;;2.97;2.50;;;11.20;96.40;;;;;;5022743;28;20627;-88
2021/05/31 00:49:20;;;;;;;3.50;2.87;;;11.00;97.40;;;;;;5025288;28;20630;-89
2021/05/31 00:51:47;;;;;;;3.03;2.83;;;10.80;99.20;;;;;;5024028;28;20662;-86
2021/05/31 00:54:14;;;;;;;2.53;2.33;;;10.60;99.40;;;;;;5026645;28;20626;-87
2021/05/31 00:56:42;;;;;;;2.80;2.37;;;10.50;99.90;;;;;;5023438;28;20633;-86
2021/05/31 00:59:08;;;;;;;2.53;2.33;;;10.40;99.90;;;;;;5026834;28;20619;-86
2021/05/31 01:01:36;;;;;;;3.53;2.50;;;10.30;99.90;;;;;;5029198;28;20646;-86
2021/05/31 01:04:02;;;;;;;5.10;2.87;;;10.10;99.90;;;;;;5036071;28;20664;-87
2021/05/31 01:06:33;;;;;;;3.00;2.30;;;10.00;99.90;;;;;;5028954;28;20627;-86
2021/05/31 01:09:05;;;;;;;3.40;2.37;;;9.80;99.90;;;;;;5029268;28;21135;-87
2021/05/31 01:11:44;;;;;;;3.90;2.80;;;9.70;99.90;;;;;;5029579;28;21374;-87
2021/05/31 01:14:19;;;;;;;2.97;2.60;;;9.60;99.90;;;;;;5036588;28;20681;-87
2021/05/31 01:16:49;;;;;;;4.90;2.13;;;9.50;99.90;;;;;;5034772;28;20627;-87
2021/05/31 01:19:34;;;;;;;2.70;2.13;;;9.50;99.90;;;;;;5038112;28;20665;-87
2021/05/31 01:22:03;;;;;;;3.63;2.20;;;9.40;99.90;;;;;;5036082;28;20621;-87
2021/05/31 01:24:50;;;;;;;2.67;2.10;;;9.40;99.90;;;;;;5028657;28;20642;-88
2021/05/31 01:27:28;;;;;;;2.60;2.40;;;9.30;99.90;;;;;;5027712;28;20635;-87
2021/05/31 01:30:05;;;;;;;3.10;2.90;;;9.10;99.90;;;;;;5025043;28;20724;-87
2021/05/31 01:32:34;;;;;;;3.00;2.70;;;9.00;99.90;;;;;;5021883;28;21282;-87
2021/05/31 01:35:03;;;;;;;3.50;2.30;;;8.90;99.90;;;;;;5024012;28;20631;-87
2021/05/31 01:37:30;;;;;;;4.10;2.60;;;8.90;99.90;;;;;;5021217;28;20688;-87
2021/05/31 01:40:03;;;;;;;3.67;2.53;;;8.80;99.90;;;;;;5022626;28;20654;-88
2021/05/31 01:42:30;;;;;;;2.50;2.30;;;9.00;99.90;;;;;;5020654;28;20654;-87
2021/05/31 01:44:59;;;;;;;2.70;2.50;;;9.00;99.90;;;;;;5021076;28;21040;-85
2021/05/31 01:47:26;;;;;;;3.03;2.43;;;9.00;99.90;;;;;;5018889;28;21120;-86
2021/05/31 01:49:53;;;;;;;3.10;2.70;;;9.00;99.90;;;;;;5021437;28;21181;-87
2021/05/31 01:52:22;;;;;;;3.23;2.13;;;9.00;99.90;;;;;;5018579;28;20761;-87
2021/05/31 01:54:49;;;;;;;2.90;2.40;;;9.10;99.90;;;;;;5021617;28;20620;-87
2021/05/31 01:57:15;;;;;;;2.47;2.27;;;8.90;99.90;;;;;;5023024;28;21010;-86
2021/05/31 01:59:42;;;;;;;4.40;2.70;;;8.80;99.90;;;;;;5019407;28;20647;-86
2021/05/31 02:02:10;;;;;;;3.17;2.17;;;8.90;99.90;;;;;;5020732;28;20632;-85
2021/05/31 02:04:36;;;;;;;3.10;2.47;;;8.90;99.90;;;;;;5018715;28;20997;-85
2021/05/31 02:07:03;;;;;;;3.50;2.30;;;8.90;99.90;;;;;;5022825;28;20662;-89
2021/05/31 02:09:29;;;;;;;3.23;2.10;;;8.90;99.90;;;;;;5016377;28;20638;-85
2021/05/31 02:12:02;;;;;;;5.20;2.07;;;8.80;99.90;;;;;;5017269;28;20664;-87
2021/05/31 02:14:33;;;;;;;2.60;2.40;;;8.70;99.90;;;;;;5022954;28;20726;-87
2021/05/31 02:17:06;;;;;;;2.63;2.43;;;8.60;99.90;;;;;;5019570;28;21006;-87
2021/05/31 02:19:35;;;;;;;2.70;2.50;;;8.40;99.90;;;;;;5021773;28;20673;-86
2021/05/31 02:22:03;;;;;;;3.80;2.63;;;8.30;99.90;;;;;;5021658;28;20660;-87
2021/05/31 02:24:31;;;;;;;2.53;2.33;;;8.30;99.90;;;;;;5022330;28;20647;-86
2021/05/31 02:26:57;;;;;;;3.03;2.47;;;8.30;99.90;;;;;;5020871;28;20633;-85
2021/05/31 02:29:24;;;;;;;2.90;2.70;;;8.30;99.90;;;;;;5019584;28;20634;-86
2021/05/31 02:31:53;;;;;;;2.60;2.40;;;8.30;99.90;;;;;;5020928;28;20624;-86
2021/05/31 02:34:20;;;;;;;2.60;2.40;;;8.20;99.90;;;;;;5019734;28;20647;-86
2021/05/31 02:36:48;;;;;;;2.70;2.50;;;8.10;99.90;;;;;;5020025;28;20623;-86
2021/05/31 02:39:15;;;;;;;2.50;2.33;;;7.90;99.90;;;;;;5021663;28;20619;-86
2021/05/31 02:41:41;;;;;;;3.27;2.93;;;7.90;99.90;;;;;;5019773;28;20638;-85
2021/05/31 02:44:08;;;;;;;6.43;3.90;;;7.90;99.90;;;;;;5023225;28;20635;-86
2021/05/31 02:46:34;;;;;;;2.83;2.40;;;7.90;99.90;;;;;;5020297;28;20644;-86
2021/05/31 02:49:03;;;;;;;3.60;3.30;;;7.90;99.90;;;;;;5020131;28;20627;-86
2021/05/31 02:51:29;;;;;;;2.97;2.67;;;7.70;99.90;;;;;;5019501;28;20673;-86
2021/05/31 02:53:57;;;;;;;2.70;2.50;;;7.80;99.90;;;;;;5023198;28;20667;-86
2021/05/31 02:56:23;;;;;;;4.73;2.40;;;8.20;99.90;;;;;;5021722;28;20649;-86
2021/05/31 02:58:50;;;;;;;9.93;7.50;;;8.30;99.90;;;;;;5025201;28;21153;-86
2021/05/31 03:01:16;;;;;;;9.00;6.60;;;8.10;99.90;;;;;;5019770;28;20648;-86
2021/05/31 03:03:42;;;;;;;4.60;3.80;;;8.10;99.90;;;;;;5012961;28;21065;-85
2021/05/31 03:06:09;;;;;;;4.00;3.40;;;8.00;99.90;;;;;;5020137;28;21181;-86
2021/05/31 03:08:35;;;;;;;3.00;2.70;;;7.90;99.90;;;;;;5021510;28;20847;-85
2021/05/31 03:11:03;;;;;;;2.60;2.40;;;7.80;99.90;;;;;;5019236;28;20650;-85
2021/05/31 03:13:29;;;;;;;2.97;2.77;;;7.60;99.90;;;;;;5020949;28;21273;-85
2021/05/31 03:15:55;;;;;;;2.73;2.53;;;7.60;99.90;;;;;;5018980;28;20623;-85
2021/05/31 03:18:22;;;;;;;6.50;3.07;;;7.50;99.90;;;;;;5020673;28;20972;-85
2021/05/31 03:20:48;;;;;;;3.70;3.07;;;7.50;99.90;;;;;;5020521;28;20650;-87
2021/05/31 03:23:15;;;;;;;2.77;2.57;;;7.50;99.90;;;;;;5020893;28;20625;-87
2021/05/31 03:25:41;;;;;;;2.73;2.57;;;7.50;99.90;;;;;;5018871;28;21001;-87
2021/05/31 03:28:09;;;;;;;5.53;3.27;;;7.40;99.90;;;;;;5017139;28;20630;-87
2021/05/31 03:30:36;;;;;;;2.70;2.50;;;7.40;99.90;;;;;;5023450;28;20654;-87
2021/05/31 03:33:03;;;;;;;4.37;2.90;;;7.50;99.90;;;;;;5018900;28;21298;-87
2021/05/31 03:35:29;;;;;;;3.03;2.83;;;7.60;99.90;;;;;;5023143;28;20700;-87
2021/05/31 03:37:56;;;;;;;3.00;2.80;;;7.50;99.90;;;;;;5023560;28;21475;-86
2021/05/31 03:40:22;;;;;;;3.30;3.00;;;7.50;99.90;;;;;;5022660;28;20662;-86
2021/05/31 03:42:49;;;;;;;3.40;3.20;;;7.40;99.90;;;;;;5021409;28;20632;-86
2021/05/31 03:45:17;;;;;;;3.13;2.80;;;7.30;99.90;;;;;;5020010;28;21219;-86
2021/05/31 03:47:43;;;;;;;3.17;2.97;;;7.30;99.90;;;;;;5025763;28;20966;-87
2021/05/31 03:50:10;;;;;;;2.83;2.63;;;7.30;99.90;;;;;;5024084;28;20985;-87
2021/05/31 03:52:37;;;;;;;3.30;3.10;;;7.30;99.90;;;;;;5025186;28;20661;-86
2021/05/31 03:55:05;;;;;;;3.30;3.00;;;7.30;99.90;;;;;;5024775;28;20650;-86
2021/05/31 03:57:32;;;;;;;3.87;3.27;;;7.30;99.90;;;;;;5021510;28;20653;-87
2021/05/31 03:59:58;;;;;;;3.87;3.57;;;7.30;99.90;;;;;;5025283;28;20761;-87
2021/05/31 04:02:26;;;;;;;4.47;3.70;;;7.30;99.90;;;;;;5023045;28;21097;-86
2021/05/31 04:04:54;;;;;;;3.50;3.20;;;7.30;99.90;;;;;;5026891;28;20974;-87
2021/05/31 04:11:33;;;;;;;4.33;3.93;;;7.20;99.90;;;;;;5025728;28;20633;-85
2021/05/31 04:12:55;;;;;;;3.93;3.60;;;7.40;99.90;;;;;;5020910;28;21164;-85
2021/05/31 04:15:22;;;;;;;5.40;3.67;;;7.30;99.90;;;;;;5020265;28;20998;-84
2021/05/31 04:17:50;;;;;;;4.53;3.40;;;7.40;99.90;;;;;;5021396;28;20646;-84
2021/05/31 04:20:16;;;;;;;4.07;3.77;;;7.60;99.90;;;;;;5021335;28;20657;-84
2021/05/31 04:22:43;;;;;;;4.37;4.00;;;7.70;99.90;;;;;;5019848;28;20631;-84
2021/05/31 04:25:10;;;;;;;5.40;3.90;;;7.70;99.90;;;;;;5025236;28;20629;-84
2021/05/31 04:27:37;;;;;;;4.53;4.20;;;7.60;99.90;;;;;;5018825;28;21224;-84
2021/05/31 04:30:04;;;;;;;5.67;3.70;;;7.70;99.90;;;;;;5022447;28;20662;-84
2021/05/31 04:32:30;;;;;;;4.07;3.77;;;7.80;99.90;;;;;;5022884;28;20674;-84
2021/05/31 04:34:58;;;;;;;4.50;4.10;;;7.70;99.90;;;;;;5020848;28;20645;-83
2021/05/31 04:37:25;;;;;;;4.90;4.50;;;7.80;99.90;;;;;;5019240;28;20642;-83
2021/05/31 04:39:52;;;;;;;5.27;3.97;;;7.80;99.90;;;;;;5020889;28;20683;-83
2021/05/31 04:42:19;;;;;;;4.17;3.87;;;7.90;99.90;;;;;;5019099;28;20638;-83
2021/05/31 04:44:45;;;;;;;4.30;3.70;;;8.00;99.90;;;;;;5019789;28;20612;-83
2021/05/31 04:47:12;;;;;;;5.83;3.97;;;8.00;99.90;;;;;;5020676;28;20985;-85
2021/05/31 04:49:38;;;;;;;4.33;4.00;;;8.00;99.90;;;;;;5025314;28;20664;-83
2021/05/31 04:52:06;;;;;;;4.90;3.90;;;8.10;99.90;;;;;;5021698;28;20674;-82
2021/05/31 04:54:32;;;;;;;4.63;4.03;;;8.20;99.90;;;;;;5018247;28;20668;-83
2021/05/31 04:56:59;;;;;;;4.73;4.40;;;8.30;99.90;;;;;;5019592;28;20705;-83
2021/05/31 04:59:25;;;;;;;5.63;4.30;;;8.40;99.90;;;;;;5020290;28;20616;-85
2021/05/31 05:01:51;;;;;;;4.80;4.40;;;8.70;99.90;;;;;;5020977;28;20634;-84
2021/05/31 05:04:18;;;;;;;5.20;4.70;;;8.70;99.90;;;;;;5022700;28;20634;-85
2021/05/31 05:06:44;;;;;;;5.40;4.23;;;9.00;99.90;;;;;;5020600;28;20621;-85
2021/05/31 05:09:12;;;;;;;5.10;4.57;;;9.20;99.90;;;;;;5020234;28;21296;-83
2021/05/31 05:11:38;;;;;;;4.70;4.30;;;9.40;99.90;;;;;;5017696;28;20787;-85
2021/05/31 05:14:04;;;;;;;4.73;4.30;;;9.50;99.90;;;;;;5019789;28;21086;-84
2021/05/31 05:16:31;;;;;;;5.00;3.97;;;9.60;99.90;;;;;;5021307;28;20690;-87
2021/05/31 05:18:57;;;;;;;5.27;4.77;;;9.80;99.90;;;;;;5024246;28;20638;-87
2021/05/31 05:21:23;;;;;;;5.20;4.00;;;10.00;99.90;;;;;;5023741;28;20676;-86
2021/05/31 05:23:50;;;;;;;3.97;3.67;;;10.10;99.90;;;;;;5022574;28;20619;-86
2021/05/31 05:26:19;;;;;;;4.73;4.33;;;10.20;99.90;;;;;;5020730;28;20649;-87
2021/05/31 05:28:46;;;;;;;4.93;4.40;;;10.30;99.90;;;;;;5021264;28;20642;-86
2021/05/31 05:31:13;;;;;;;4.40;4.00;;;10.50;99.90;;;;;;5022764;28;20658;-86
2021/05/31 05:33:42;;;;;;;3.73;3.43;;;10.60;99.90;;;;;;5022057;28;20750;-86
2021/05/31 05:36:19;;;;;;;4.53;4.23;;;10.80;99.90;;;;;;5023578;28;21274;-84
2021/05/31 05:41:38;;;;;;;5.20;4.20;;;11.30;99.90;;;;;;5024295;28;21025;-84
2021/05/31 05:44:35;;;;;;;4.30;3.90;;;11.50;99.90;;;;;;5023694;28;20644;-84
2021/05/31 05:49:45;;;;;;;4.27;3.87;;;11.70;99.90;;;;;;5023190;28;20736;-85
2021/05/31 05:52:12;;;;;;;4.80;4.00;;;11.90;99.90;;;;;;5018986;28;20642;-86
2021/05/31 05:54:38;;;;;;;3.53;3.23;;;12.00;99.90;;;;;;5022876;28;20631;-87
2021/05/31 05:57:07;;;;;;;4.10;3.27;;;12.20;99.90;;;;;;5022076;28;20628;-86
2021/05/31 05:59:34;;;;;;;3.23;3.03;;;12.40;99.90;;;;;;5018752;28;20647;-86
2021/05/31 06:02:01;;;;;;;4.33;3.93;;;12.50;99.90;;;;;;5020525;28;20651;-87
2021/05/31 06:04:27;;;;;;;3.50;3.20;;;12.60;99.90;;;;;;5024558;28;20693;-87
2021/05/31 06:06:55;;;;;;;3.10;2.80;;;12.80;99.90;;;;;;5025226;28;20627;-85
2021/05/31 06:09:22;;;;;;;4.30;3.20;;;13.00;99.90;;;;;;5018695;28;20633;-86
2021/05/31 06:11:48;;;;;;;3.20;2.90;;;13.20;99.70;;;;;;5028119;28;20758;-86
2021/05/31 06:14:17;;;;;;;5.30;3.30;;;13.40;98.90;;;;;;5021473;28;20667;-86
2021/05/31 06:16:43;;;;;;;3.60;3.30;;;13.60;99.20;;;;;;5023030;28;21189;-85
2021/05/31 06:19:10;;;;;;;2.80;2.20;;;13.80;98.50;;;;;;5020326;28;20639;-86
2021/05/31 06:21:37;;;;;;;2.77;2.57;;;14.00;97.00;;;;;;5018216;28;20587;-85
2021/05/31 06:24:05;;;;;;;2.60;2.40;;;14.10;97.10;;;;;;5016775;28;20658;-85
2021/05/31 06:26:33;;;;;;;3.17;2.47;;;14.30;97.20;;;;;;5022687;28;20642;-85
2021/05/31 06:28:59;;;;;;;2.30;2.20;;;14.40;96.90;;;;;;5022093;28;20645;-86
2021/05/31 06:31:27;;;;;;;5.40;2.47;;;14.60;96.70;;;;;;5024180;28;20674;-86
2021/05/31 06:33:53;;;;;;;3.27;2.33;;;14.70;96.80;;;;;;5026205;28;21302;-86
2021/05/31 06:36:20;;;;;;;2.70;2.50;;;14.80;96.90;;;;;;5025703;28;20638;-85
2021/05/31 06:38:46;;;;;;;2.80;2.60;;;14.90;96.30;;;;;;5022953;28;20636;-86
2021/05/31 06:41:12;;;;;;;4.57;2.57;;;15.10;96.80;;;;;;5025358;28;20662;-87
2021/05/31 06:43:41;;;;;;;3.27;2.57;;;15.10;97.00;;;;;;5026172;28;20966;-86
2021/05/31 06:46:08;;;;;;;2.63;2.40;;;15.10;96.70;;;;;;5019534;28;20635;-86
2021/05/31 06:48:35;;;;;;;2.30;2.10;;;15.20;95.80;;;;;;5025077;28;21181;-86
2021/05/31 06:51:02;;;;;;;2.80;2.20;;;15.30;96.00;;;;;;5018040;28;20655;-85
2021/05/31 06:53:28;;;;;;;4.07;2.20;;;15.30;94.20;;;;;;5022359;28;21435;-87
2021/05/31 06:55:58;;;;;;;2.33;2.13;;;15.50;93.30;;;;;;5022297;28;20635;-87
2021/05/31 06:58:26;;;;;;;1.97;1.83;;;15.50;93.40;;;;;;5026049;28;21052;-87
2021/05/31 07:00:52;;;;;;;4.47;2.70;;;15.60;93.60;;;;;;5025923;28;20663;-87
2021/05/31 07:03:18;;;;;;;2.20;2.10;;;15.60;93.40;;;;;;5025309;28;20622;-88
2021/05/31 07:05:46;;;;;;;1.90;1.80;;;15.70;93.20;;;;;;5024106;28;20627;-87
2021/05/31 07:08:12;;;;;;;2.53;2.03;;;15.70;93.70;;;;;;5022112;28;20658;-88
2021/05/31 07:10:39;;;;;;;2.13;1.93;;;15.80;93.50;;;;;;5023355;28;21014;-87
2021/05/31 07:13:05;;;;;;;2.57;2.37;;;15.90;92.20;;;;;;5022928;28;20673;-87
2021/05/31 07:15:33;;;;;;;2.30;2.20;;;16.00;92.80;;;;;;5020323;28;20725;-89
2021/05/31 07:17:59;;;;;;;6.17;2.03;;;16.00;92.40;;;;;;5021916;28;20992;-89
2021/05/31 07:20:26;;;;;;;2.83;1.90;;;16.30;91.60;;;;;;5020401;28;20658;-89
2021/05/31 07:22:54;;;;;;;3.30;2.17;;;16.30;91.10;;;;;;5023953;28;20621;-88
2021/05/31 07:25:20;;;;;;;2.00;1.90;;;16.30;89.90;;;;;;5023972;28;20627;-87
2021/05/31 07:27:47;;;;;;;3.03;1.87;;;16.20;87.90;;;;;;5022390;28;21170;-89
2021/05/31 07:30:17;;;;;;;2.07;1.97;;;16.20;84.50;;;;;;5020070;28;20648;-88
2021/05/31 07:32:44;;;;;;;2.10;1.90;;;16.30;83.50;;;;;;5019178;28;20670;-87
2021/05/31 07:35:11;;;;;;;3.10;2.07;;;16.20;84.40;;;;;;5019283;28;20626;-88
2021/05/31 07:37:38;;;;;;;2.10;1.50;;;16.50;83.00;;;;;;5020241;28;20633;-86
2021/05/31 07:40:08;;;;;;;2.00;1.80;;;16.40;78.50;;;;;;5020105;28;20655;-89
2021/05/31 07:42:34;;;;;;;2.43;2.23;;;16.20;78.50;;;;;;5020468;28;20653;-88
2021/05/31 07:45:04;;;;;;;1.80;1.70;;;16.40;79.20;;;;;;5021684;28;20627;-87
2021/05/31 07:47:30;;;;;;;2.37;2.10;;;16.50;81.50;;;;;;5022188;28;20627;-86
2021/05/31 07:49:57;;;;;;;2.40;1.87;;;16.70;79.80;;;;;;5025670;28;21223;-87
2021/05/31 07:52:25;;;;;;;3.20;2.10;;;16.70;79.00;;;;;;5022976;28;20992;-86
2021/05/31 07:54:52;;;;;;;3.00;1.87;;;16.70;77.00;;;;;;5025123;28;20669;-86
2021/05/31 07:57:21;;;;;;;2.00;1.67;;;16.90;78.60;;;;;;5021560;28;20654;-86
2021/05/31 07:59:51;;;;;;;2.93;1.90;;;17.10;79.00;;;;;;5018672;28;20670;-86
2021/05/31 08:02:18;;;;;;;1.90;1.80;;;17.30;76.70;;;;;;5019122;28;20617;-88
2021/05/31 08:04:46;;;;;;;2.93;1.80;;;17.00;77.40;;;;;;5013982;28;20941;-87
2021/05/31 08:07:13;;;;;;;2.83;2.57;;;17.10;76.70;;;;;;5023658;28;20651;-88
2021/05/31 08:09:40;;;;;;;2.90;2.00;;;17.00;74.70;;;;;;5023467;28;21048;-86
2021/05/31 08:12:08;;;;;;;1.80;1.70;;;17.10;76.10;;;;;;5023096;28;20635;-87
2021/05/31 08:14:36;;;;;;;2.80;2.03;;;17.40;76.70;;;;;;5022954;28;20754;-88
2021/05/31 08:17:03;;;;;;;1.90;1.80;;;17.40;78.20;;;;;;5025067;28;20656;-87
2021/05/31 08:19:31;;;;;;;2.47;1.87;;;17.50;77.30;;;;;;5020771;28;20635;-87
2021/05/31 08:21:58;;;;;;;2.20;2.03;;;17.50;78.60;;;;;;5019808;28;21031;-87
2021/05/31 08:24:24;;;;;;;2.07;1.87;;;17.50;78.50;;;;;;5021902;28;20985;-86
2021/05/31 08:26:51;;;;;;;2.33;1.90;;;17.50;79.50;;;;;;5017867;28;21023;-87
2021/05/31 08:29:18;;;;;;;3.50;1.90;;;17.50;79.40;;;;;;5021620;28;20647;-88
2021/05/31 08:31:46;;;;;;;2.30;1.80;;;17.60;78.00;;;;;;5020003;28;21050;-87
2021/05/31 08:34:12;;;;;;;2.10;1.80;;;17.70;77.90;;;;;;5024179;28;20663;-87
2021/05/31 08:36:38;;;;;;;2.20;2.10;;;17.90;77.30;;;;;;5024310;28;20666;-87
2021/05/31 08:39:06;;;;;;;2.20;2.00;;;17.80;76.00;;;;;;5021066;28;20622;-87
2021/05/31 08:41:34;;;;;;;1.87;1.63;;;18.10;76.70;;;;;;5025644;28;20639;-87
2021/05/31 08:44:01;;;;;;;1.70;1.57;;;18.10;75.60;;;;;;5023889;28;21201;-87
2021/05/31 08:46:27;;;;;;;3.03;2.10;;;18.00;74.50;;;;;;5020878;28;20996;-88
2021/05/31 08:48:56;;;;;;;2.10;1.90;;;18.20;72.80;;;;;;5025451;28;20761;-88
2021/05/31 08:51:23;;;;;;;4.47;3.30;;;18.20;73.80;;;;;;5027804;28;20200;-86
2021/05/31 08:53:49;;;;;;;2.03;1.93;;;18.40;73.80;;;;;;5023697;28;20659;-87
2021/05/31 08:56:18;;;;;;;1.90;1.80;;;18.40;73.90;;;;;;5021799;28;20627;-87
2021/05/31 08:58:47;;;;;;;2.57;2.37;;;18.10;72.00;;;;;;5023193;28;20628;-86
2021/05/31 09:01:13;;;;;;;3.03;2.03;;;18.20;73.50;;;;;;5022773;28;20638;-85
2021/05/31 09:03:41;;;;;;;2.23;2.13;;;18.50;72.40;;;;;;5023182;28;20665;-86
2021/05/31 09:06:10;;;;;;;2.10;2.00;;;18.70;73.70;;;;;;5020196;28;21016;-86
2021/05/31 09:08:38;;;;;;;3.27;1.73;;;18.60;72.00;;;;;;5024205;28;20627;-88
2021/05/31 09:11:06;;;;;;;2.43;2.20;;;18.60;73.70;;;;;;5021259;28;21027;-86
2021/05/31 09:13:34;;;;;;;1.73;1.60;;;18.70;72.40;;;;;;5023549;28;21038;-86
2021/05/31 09:16:09;;;;;;;1.60;1.50;;;18.70;72.60;;;;;;5027050;28;20646;-87
2021/05/31 09:18:40;;;;;;;1.70;1.60;;;18.70;71.10;;;;;;5025734;28;20700;-87
2021/05/31 09:21:20;;;;;;;2.50;1.60;;;18.60;71.70;;;;;;5026105;28;20626;-89
2021/05/31 09:23:48;;;;;;;2.13;1.93;;;18.80;72.30;;;;;;5020436;28;20611;-85
2021/05/31 09:26:15;;;;;;;3.83;1.90;;;19.10;69.20;;;;;;5022779;28;20657;-86
2021/05/31 09:28:53;;;;;;;1.90;1.80;;;19.10;67.60;;;;;;5022937;28;20661;-86
2021/05/31 09:31:22;;;;;;;4.73;2.10;;;19.20;70.30;;;;;;5021213;28;20634;-87
2021/05/31 09:33:57;;;;;;;3.17;1.70;;;19.00;69.10;;;;;;5021498;28;20773;-87
2021/05/31 09:36:26;;;;;;;1.80;1.70;;;19.30;66.80;;;;;;5026097;28;20642;-86
2021/05/31 09:38:54;;;;;;;3.10;1.80;;;19.00;66.20;;;;;;5025419;28;20633;-87
2021/05/31 09:41:25;;;;;;;2.07;1.93;;;18.70;68.10;;;;;;5027619;28;21039;-85
2021/05/31 09:43:57;;;;;;;2.70;2.20;;;19.40;68.70;;;;;;5026347;28;20630;-86
2021/05/31 09:46:37;;;;;;;1.80;1.70;;;20.00;68.10;;;;;;5025283;28;20629;-86
2021/05/31 09:49:14;;;;;;;1.80;1.70;;;20.00;68.00;;;;;;5025557;28;20878;-87
2021/05/31 09:51:57;;;;;;;2.40;2.20;;;19.70;66.90;;;;;;5025825;28;20603;-85
2021/05/31 09:54:35;;;;;;;2.33;1.70;;;20.10;66.10;;;;;;5026613;28;20701;-85
2021/05/31 09:57:15;;;;;;;2.27;2.07;;;20.10;64.80;;;;;;5028496;28;20651;-86
2021/05/31 09:59:45;;;;;;;3.50;2.67;;;19.90;63.00;;;;;;5023319;28;20638;-87
2021/05/31 10:02:15;;;;;;;2.00;1.90;;;20.10;64.70;;;;;;5022405;28;20622;-87
2021/05/31 10:04:47;;;;;;;2.10;1.90;;;20.50;64.00;;;;;;5021058;28;20659;-87
2021/05/31 10:07:23;;;;;;;2.10;1.90;;;20.60;64.10;;;;;;5020158;28;21332;-88
2021/05/31 10:09:49;;;;;;;2.00;1.73;;;20.50;62.60;;;;;;5014788;28;20635;-89
2021/05/31 10:12:16;;;;;;;2.30;2.10;;;20.50;62.60;;;;;;5022885;28;20649;-88
2021/05/31 10:14:43;;;;;;;2.63;2.43;;;20.20;61.20;;;;;;5026031;28;20670;-86
2021/05/31 10:17:11;;;;;;;2.20;1.93;;;20.00;61.20;;;;;;5024301;28;20658;-87
2021/05/31 10:19:38;;;;;;;2.00;1.87;;;20.50;61.10;;;;;;5018127;28;20626;-87
2021/05/31 10:22:04;;;;;;;2.50;2.30;;;20.60;59.70;;;;;;5019475;28;20635;-88
2021/05/31 10:24:33;;;;;;;2.43;1.90;;;20.70;61.90;;;;;;5025391;28;20624;-86
2021/05/31 10:27:00;;;;;;;2.10;1.90;;;20.70;59.90;;;;;;5020140;28;20670;-86
2021/05/31 10:29:27;;;;;;;2.33;1.60;;;21.10;58.60;;;;;;5020068;28;20640;-86
2021/05/31 10:31:53;;;;;;;2.13;1.93;;;21.00;59.60;;;;;;5016824;28;20644;-85
2021/05/31 10:34:21;;;;;;;2.03;1.83;;;20.80;55.20;;;;;;5015517;28;21214;-86
2021/05/31 10:36:51;;;;;;;2.33;1.50;;;21.00;57.90;;;;;;5017920;28;21079;-87
2021/05/31 10:39:25;;;;;;;1.90;1.80;;;21.40;57.30;;;;;;5016215;28;20638;-86
2021/05/31 10:42:04;;;;;;;2.63;1.70;;;21.70;58.20;;;;;;5018518;28;20622;-87
2021/05/31 10:44:32;;;;;;;2.17;1.70;;;21.60;57.10;;;;;;5018469;28;20680;-87
2021/05/31 10:47:05;;;;;;;1.90;1.63;;;21.80;57.30;;;;;;5018952;28;21176;-87
2021/05/31 10:49:31;;;;;;;2.43;2.10;;;21.50;55.20;;;;;;5019212;28;21203;-87
2021/05/31 10:51:58;;;;;;;2.17;2.00;;;21.50;56.30;;;;;;5027250;28;20634;-87
2021/05/31 10:54:25;;;;;;;2.17;1.90;;;22.10;56.50;;;;;;5020946;28;20951;-87
2021/05/31 10:57:05;;;;;;;1.87;1.77;;;22.00;56.50;;;;;;5021350;28;20697;-87
2021/05/31 10:59:31;;;;;;;1.73;1.63;;;22.70;56.20;;;;;;5020203;28;20626;-87
2021/05/31 11:01:57;;;;;;;2.40;1.60;;;22.90;54.90;;;;;;5023657;28;20619;-87
2021/05/31 11:04:26;;;;;;;1.83;1.73;;;22.90;54.20;;;;;;5022657;28;20989;-87
2021/05/31 11:06:53;;;;;;;2.17;1.97;;;23.20;53.60;;;;;;5019717;28;20683;-86
2021/05/31 11:09:21;;;;;;;2.37;1.93;;;23.40;53.50;;;;;;5021043;28;20680;-87
2021/05/31 11:11:50;;;;;;;3.07;2.00;;;23.10;52.80;;;;;;5021957;28;20653;-87
2021/05/31 11:14:30;;;;;;;2.17;1.97;;;23.20;54.40;;;;;;5020403;28;21697;-85
2021/05/31 11:16:58;;;;;;;3.17;1.73;;;22.60;52.20;;;;;;5019880;28;21006;-85
2021/05/31 11:19:32;;;;;;;2.70;1.93;;;23.20;52.90;;;;;;5020384;28;20611;-85
2021/05/31 11:21:58;;;;;;;1.70;1.60;;;23.30;52.20;;;;;;5020843;28;20623;-86
2021/05/31 11:24:25;;;;;;;2.20;2.10;;;23.00;52.80;;;;;;5020596;28;20618;-86
2021/05/31 11:26:51;;;;;;;5.13;2.20;;;23.00;52.00;;;;;;5022527;28;20653;-86
2021/05/31 11:29:19;;;;;;;1.80;1.70;;;22.80;52.30;;;;;;5022396;28;20637;-86
2021/05/31 11:31:46;;;;;;;2.03;1.93;;;22.90;53.40;;;;;;5022334;28;20631;-85
2021/05/31 11:34:12;;;;;;;2.03;1.93;;;23.30;50.60;;;;;;5021217;28;20647;-85
2021/05/31 11:36:41;;;;;;;2.80;1.53;;;23.30;50.70;;;;;;5024541;28;20647;-87
2021/05/31 11:39:10;;;;;;;1.67;1.57;;;23.50;51.80;;;;;;5024820;28;20619;-86
2021/05/31 11:41:40;;;;;;;2.17;2.07;;;24.10;52.10;;;;;;5022637;28;20684;-86
2021/05/31 11:44:09;;;;;;;1.90;1.80;;;24.10;49.80;;;;;;5023322;28;20702;-87
2021/05/31 11:46:51;;;;;;;2.57;1.97;;;24.10;50.80;;;;;;5019533;28;20646;-87
2021/05/31 11:49:18;;;;;;;3.20;2.20;;;24.70;49.60;;;;;;5020683;28;20634;-85
2021/05/31 11:51:59;;;;;;;3.63;2.07;;;24.50;50.50;;;;;;5023964;28;20637;-87
2021/05/31 11:54:25;;;;;;;2.10;2.00;;;24.50;49.90;;;;;;5021466;28;20666;-88
2021/05/31 11:56:52;;;;;;;2.53;2.30;;;23.90;49.60;;;;;;5019370;28;20646;-87
2021/05/31 11:59:18;;;;;;;4.70;1.87;;;24.40;51.20;;;;;;5021218;28;20700;-87
2021/05/31 12:01:53;;;;;;;2.70;2.20;;;25.10;50.60;;;;;;5026876;28;20632;-87
2021/05/31 12:04:19;;;;;;;1.97;1.77;;;24.50;48.80;;;;;;5022787;28;20627;-86
2021/05/31 12:06:56;;;;;;;1.83;1.70;;;24.80;48.90;;;;;;5018581;28;20745;-87
2021/05/31 12:09:25;;;;;;;2.17;1.97;;;25.00;48.70;;;;;;5022646;28;20614;-86
2021/05/31 12:11:51;;;;;;;4.90;2.00;;;24.80;50.30;;;;;;5024104;28;20680;-86
2021/05/31 12:14:20;;;;;;;3.20;1.90;;;25.20;46.90;;;;;;5024201;28;20705;-86
2021/05/31 12:16:56;;;;;;;2.63;2.30;;;25.90;47.60;;;;;;5024334;28;20660;-87
2021/05/31 12:19:23;;;;;;;1.97;1.77;;;26.00;46.70;;;;;;5021173;28;20696;-85
2021/05/31 12:21:54;;;;;;;2.20;2.00;;;26.60;47.10;;;;;;5022222;28;20995;-87
2021/05/31 12:24:27;;;;;;;2.53;1.80;;;26.70;44.80;;;;;;5019968;28;20660;-87
2021/05/31 12:26:55;;;;;;;2.27;2.17;;;27.10;46.70;;;;;;5018887;28;20654;-88
2021/05/31 12:29:30;;;;;;;2.53;1.80;;;27.10;45.70;;;;;;5021940;28;21217;-86
2021/05/31 12:31:58;;;;;;;2.87;2.10;;;26.80;45.40;;;;;;5022626;28;20635;-86
2021/05/31 12:34:24;;;;;;;2.10;1.90;;;26.30;45.40;;;;;;5022463;28;20666;-87
2021/05/31 12:36:51;;;;;;;2.20;2.03;;;26.90;46.30;;;;;;5022868;28;20650;-87
2021/05/31 12:39:17;;;;;;;2.03;1.93;;;27.30;45.10;;;;;;5028164;28;20651;-86
2021/05/31 12:41:44;;;;;;;2.33;1.97;;;27.40;44.00;;;;;;5023401;28;20622;-87
2021/05/31 12:44:11;;;;;;;3.87;1.93;;;27.60;42.30;;;;;;5025219;28;20634;-87
2021/05/31 12:46:39;;;;;;;2.50;2.30;;;27.30;43.30;;;;;;5024317;28;20651;-87
2021/05/31 12:49:07;;;;;;;2.03;1.93;;;27.20;43.10;;;;;;5023160;28;21050;-87
2021/05/31 12:51:34;;;;;;;2.20;1.97;;;27.30;42.00;;;;;;5025888;28;20626;-87
2021/05/31 12:54:01;;;;;;;2.37;2.27;;;27.30;41.80;;;;;;5024351;28;20703;-87
2021/05/31 12:56:29;;;;;;;3.00;2.10;;;27.70;43.60;;;;;;5019734;28;20670;-87
2021/05/31 12:59:03;;;;;;;2.43;2.20;;;27.80;44.20;;;;;;5020903;28;21419;-87
2021/05/31 13:01:30;;;;;;;2.57;2.00;;;28.10;43.80;;;;;;5019563;28;20634;-86
2021/05/31 13:03:56;;;;;;;2.40;2.20;;;27.70;43.50;;;;;;5022376;28;20710;-87